タシュケント の空港の天気 - METARとTAF

タシケント空港 ( UTTT / TAS ) - ウズベキスタン タシュケント
飛行場実況気象(Metar)
観測時間05/23 05:30 UZT (05/23 00:30 UTC)
風向・風速東 3m/s
視程10km以上
天気現象
なし
気温15℃
湿度72%
気圧1017hPa
METARUTTT 230030Z 09006KT CAVOK 15/10 Q1017 R08R/CLRD70 NOSIG
過去の天気等 Google飛行場航空写真 Wunderground天気予報

過去48時間のMETAR

飛行場予報(TAF)
発表時間: 5/23 04:00 UZT (5/22 23:00 UTC)
予報対象時間: 23日5時 UZT ~ 24日5時 UZT
風向・風速東北東 5m/s
視程10km以上
少しの積乱雲 雲底高度 1,830m
全天の4割程度の雲 雲底高度 3,050m
23日5時 UZT ~ 23日13時 UZT に 確率 40% で一時的に
天気現象弱い雷雨
全天の4割程度の積乱雲 雲底高度 1,830m
TAF UTTT 222300Z 2300/2324 06010KT 9999 FEW060CB SCT100
PROB40 TEMPO 2300/2308 -TSRA SCT060CB